الصفحة الرئيسية
METAR-TAF:

METAR-TAF

مطار :

Custer County Airport

Custer, داكوتا الجنوبية, الولايات المتحدة

دائرة عرض: 43-43-59N, خط طول: 103-37-03W, ارتفاع: 1707 متر

مراقبة الطقس الحالي

تاريخ ووقت الإصدار 23 دقيقة قبل الساعة 09:53UTC
ريح 7 عقدة من الشرق/الشمال الشرقي
درجة الحرارة -13°درجة مئوية
الرطوبة 78%
ضغط 1013 hPa
الرؤية: 4.0 كم
ملبد بالغيوم على ارتفاع 900 قدم
ثلوج خفيفة

METAR: KCUT 220953Z AUTO 07007KT 2 1/2SM -SN OVC009 M13/M16 A2991 RMK AO2 SLP200 P0000 T11281156 $

زمن: 03:16 (10:16 UTC)


TAF: مفقودة

أرصاد الطقس والتوقعات من أكثر من 4000 مطار (تقارير الطقس للمطار METAR والتنبؤ بالطقس بالمطارTAF).

المحطات المتاحة هي النقط الصفراء والحمراء على الخريطة.

حرك المؤشر فوق النقطة لمعرفة اسم المحطة.

ثم انقر لمعرفة أرصاد وتوقعات الطقس.

لتغيير الخارطة: اضغط على الأزرار الخضراء مع رمز الصليب الأسود للتكبير. على الزر الأخضر مع شرطة للتصغير، أو على الأسهم الخضراء للخرائط المجاورة.


METAR-TAF: